createdAt,value
2019-05-12T00:00:11.706Z,99.90
2019-05-12T00:02:42.645Z,99.90
2019-05-12T00:05:13.675Z,99.80
2019-05-12T00:07:44.527Z,99.40
2019-05-12T00:10:17.602Z,99.90
2019-05-12T00:12:48.626Z,99.80
2019-05-12T00:15:19.930Z,99.60
2019-05-12T00:17:51.381Z,99.70
2019-05-12T00:20:22.190Z,99.80
2019-05-12T00:22:58.116Z,99.70
2019-05-12T00:25:29.005Z,99.80
2019-05-12T00:27:59.952Z,99.80
2019-05-12T00:30:48.736Z,99.40
2019-05-12T00:33:19.306Z,99.80
2019-05-12T00:35:50.130Z,99.90
2019-05-12T00:38:21.032Z,99.90
2019-05-12T00:40:51.753Z,99.90
2019-05-12T00:43:22.424Z,99.90
2019-05-12T00:45:52.958Z,99.90
2019-05-12T00:48:24.178Z,99.90
2019-05-12T00:50:54.934Z,99.80
2019-05-12T00:53:39.414Z,99.90
2019-05-12T00:55:58.009Z,99.90
2019-05-12T00:58:28.757Z,99.90
2019-05-12T01:00:59.705Z,99.90
2019-05-12T01:03:30.754Z,99.80
2019-05-12T01:06:01.362Z,99.90
2019-05-12T01:08:32.317Z,99.90
2019-05-12T01:11:03.328Z,99.90
2019-05-12T01:13:34.134Z,99.90
2019-05-12T01:16:04.970Z,99.90
2019-05-12T01:18:38.423Z,99.90
2019-05-12T01:21:08.316Z,99.90
2019-05-12T01:23:53.307Z,99.90
2019-05-12T01:26:11.402Z,99.90
2019-05-12T01:28:42.465Z,99.90
2019-05-12T01:31:14.853Z,99.90
2019-05-12T01:33:45.539Z,99.90
2019-05-12T01:36:18.131Z,99.90
2019-05-12T01:38:48.583Z,99.90
2019-05-12T01:41:19.389Z,99.90
2019-05-12T01:43:50.150Z,99.90
2019-05-12T01:46:20.979Z,99.90
2019-05-12T01:48:51.631Z,99.90
2019-05-12T01:51:22.401Z,99.90
2019-05-12T01:53:53.041Z,99.90
2019-05-12T01:56:23.622Z,99.90
2019-05-12T01:58:54.293Z,99.90
2019-05-12T02:01:25.051Z,99.90
2019-05-12T02:03:55.556Z,99.90
2019-05-12T02:06:27.918Z,99.90
2019-05-12T02:09:00.581Z,99.90
2019-05-12T02:11:35.219Z,99.90
2019-05-12T02:14:06.360Z,99.90
2019-05-12T02:16:38.671Z,99.90
2019-05-12T02:19:10.757Z,99.90
2019-05-12T02:21:41.367Z,99.90
2019-05-12T02:24:23.532Z,99.90
2019-05-12T02:26:44.572Z,99.90
2019-05-12T02:29:15.612Z,99.90
2019-05-12T02:31:49.794Z,99.90
2019-05-12T02:34:18.547Z,99.90
2019-05-12T02:36:49.388Z,99.90
2019-05-12T02:39:20.054Z,99.90
2019-05-12T02:41:50.726Z,99.90
2019-05-12T02:44:24.567Z,99.90
2019-05-12T02:46:55.179Z,99.90
2019-05-12T02:49:26.181Z,99.90
2019-05-12T02:51:56.916Z,99.90
2019-05-12T02:54:47.066Z,99.90
2019-05-12T02:57:00.433Z,99.90
2019-05-12T02:59:34.713Z,99.90
2019-05-12T03:02:05.637Z,99.90
2019-05-12T03:04:38.352Z,99.90
2019-05-12T03:07:10.530Z,99.90
2019-05-12T03:09:44.705Z,99.90
2019-05-12T03:12:15.269Z,99.90
2019-05-12T03:14:45.939Z,99.90
2019-05-12T03:17:16.419Z,99.90
2019-05-12T03:19:47.045Z,99.90
2019-05-12T03:22:17.615Z,99.90
2019-05-12T03:25:06.468Z,99.90
2019-05-12T03:27:20.580Z,99.90
2019-05-12T03:29:51.368Z,99.90
2019-05-12T03:32:26.727Z,99.90
2019-05-12T03:34:57.909Z,99.90
2019-05-12T03:37:30.579Z,99.90
2019-05-12T03:39:58.455Z,99.90
2019-05-12T03:42:29.187Z,99.90
2019-05-12T03:44:59.942Z,99.90
2019-05-12T03:47:30.486Z,99.90
2019-05-12T03:50:04.341Z,99.90
2019-05-12T03:52:35.046Z,99.90
2019-05-12T03:55:26.010Z,99.90
2019-05-12T03:57:38.594Z,99.90
2019-05-12T04:00:10.491Z,99.90
2019-05-12T04:02:45.123Z,99.90
2019-05-12T04:05:15.617Z,99.90
2019-05-12T04:07:46.684Z,99.90
2019-05-12T04:10:17.283Z,99.90
2019-05-12T04:12:48.073Z,99.90
2019-05-12T04:15:19.789Z,99.90
2019-05-12T04:17:50.403Z,99.90
2019-05-12T04:20:20.906Z,99.90
2019-05-12T04:22:53.936Z,99.90
2019-05-12T04:25:24.918Z,99.90
2019-05-12T04:27:56.101Z,99.90
2019-05-12T04:30:27.536Z,99.90
2019-05-12T04:32:58.269Z,99.90
2019-05-12T04:35:29.025Z,99.90
2019-05-12T04:37:59.797Z,99.90
2019-05-12T04:40:30.498Z,99.90
2019-05-12T04:43:00.980Z,99.90
2019-05-12T04:45:34.265Z,99.90
2019-05-12T04:48:05.236Z,99.90
2019-05-12T04:50:36.837Z,99.90
2019-05-12T04:53:07.731Z,99.90
2019-05-12T04:55:38.237Z,99.90
2019-05-12T04:58:09.515Z,99.90
2019-05-12T05:00:44.827Z,99.90
2019-05-12T05:03:14.929Z,99.90
2019-05-12T05:05:45.867Z,99.90
2019-05-12T05:08:19.619Z,99.90
2019-05-12T05:10:49.349Z,99.90
2019-05-12T05:13:20.050Z,99.90
2019-05-12T05:15:50.945Z,99.90
2019-05-12T05:18:23.868Z,99.90
2019-05-12T05:20:54.317Z,99.90
2019-05-12T05:23:25.724Z,99.90
2019-05-12T05:25:56.544Z,99.90
2019-05-12T05:28:27.432Z,99.90
2019-05-12T05:30:58.215Z,99.90
2019-05-12T05:33:28.834Z,99.90
2019-05-12T05:36:00.046Z,99.90
2019-05-12T05:38:30.611Z,99.90
2019-05-12T05:41:06.051Z,99.90
2019-05-12T05:43:33.790Z,99.90
2019-05-12T05:46:07.893Z,99.90
2019-05-12T05:48:36.973Z,99.90
2019-05-12T05:51:09.206Z,99.90
2019-05-12T05:53:40.307Z,99.90
2019-05-12T05:56:11.037Z,99.90
2019-05-12T05:58:47.196Z,99.90
2019-05-12T06:01:14.582Z,99.90
2019-05-12T06:03:45.943Z,99.90
2019-05-12T06:06:17.920Z,99.90
2019-05-12T06:08:59.288Z,99.90
2019-05-12T06:11:31.251Z,99.90
2019-05-12T06:14:11.125Z,99.90
2019-05-12T06:16:35.635Z,99.90
2019-05-12T06:19:07.821Z,99.90
2019-05-12T06:21:38.623Z,99.90
2019-05-12T06:24:15.641Z,99.90
2019-05-12T06:26:54.529Z,99.90
2019-05-12T06:29:20.642Z,99.90
2019-05-12T06:31:51.195Z,99.90
2019-05-12T06:34:23.854Z,99.90
2019-05-12T06:36:57.193Z,99.90
2019-05-12T06:39:26.780Z,99.90
2019-05-12T06:42:08.639Z,99.90
2019-05-12T06:44:30.164Z,99.90
2019-05-12T06:47:03.614Z,99.90
2019-05-12T06:49:34.124Z,99.90
2019-05-12T06:52:07.180Z,99.80
2019-05-12T06:54:44.563Z,99.50
2019-05-12T06:57:24.051Z,99.20
2019-05-12T06:59:51.043Z,99.20
2019-05-12T07:02:17.260Z,99.20
2019-05-12T07:04:56.292Z,99.00
2019-05-12T07:07:20.537Z,98.90
2019-05-12T07:09:54.981Z,98.80
2019-05-12T07:12:32.302Z,99.20
2019-05-12T07:14:58.576Z,99.20
2019-05-12T07:17:55.677Z,99.00
2019-05-12T07:20:29.312Z,98.20
2019-05-12T07:22:57.342Z,97.80
2019-05-12T07:25:31.417Z,97.80
2019-05-12T07:28:01.523Z,97.50
2019-05-12T07:30:35.130Z,97.20
2019-05-12T07:33:05.296Z,97.10
2019-05-12T07:35:37.794Z,96.90
2019-05-12T07:38:12.204Z,96.70
2019-05-12T07:40:46.021Z,96.60
2019-05-12T07:43:20.828Z,96.30
2019-05-12T07:45:53.930Z,96.50
2019-05-12T07:48:24.835Z,96.20
2019-05-12T07:51:00.430Z,96.00
2019-05-12T07:53:28.119Z,96.00
2019-05-12T07:55:58.974Z,95.70
2019-05-12T07:58:29.965Z,95.60
2019-05-12T08:01:02.712Z,94.90
2019-05-12T08:03:35.128Z,95.00
2019-05-12T08:06:06.154Z,95.10
2019-05-12T08:08:41.847Z,94.50
2019-05-12T08:11:09.323Z,94.30
2019-05-12T08:13:40.990Z,94.30
2019-05-12T08:16:14.258Z,93.80
2019-05-12T08:18:44.733Z,93.80
2019-05-12T08:21:15.339Z,93.70
2019-05-12T08:23:46.387Z,93.50
2019-05-12T08:26:18.625Z,93.20
2019-05-12T08:28:49.291Z,93.20
2019-05-12T08:31:25.872Z,92.60
2019-05-12T08:33:53.823Z,92.90
2019-05-12T08:36:24.456Z,92.30
2019-05-12T08:38:55.077Z,92.50
2019-05-12T08:41:25.663Z,92.40
2019-05-12T08:43:58.452Z,92.40
2019-05-12T08:46:29.526Z,92.10
2019-05-12T08:49:02.469Z,91.60
2019-05-12T08:51:33.886Z,92.00
2019-05-12T08:54:08.162Z,91.60
2019-05-12T08:56:37.989Z,90.60
2019-05-12T08:59:09.587Z,91.00
2019-05-12T09:01:40.638Z,90.50
2019-05-12T09:04:17.357Z,91.10
2019-05-12T09:06:44.592Z,90.90
2019-05-12T09:09:15.454Z,90.60
2019-05-12T09:11:45.946Z,90.10
2019-05-12T09:14:16.383Z,90.00
2019-05-12T09:16:47.042Z,90.00
2019-05-12T09:19:23.849Z,90.30
2019-05-12T09:21:49.813Z,88.00
2019-05-12T09:24:25.396Z,87.90
2019-05-12T09:26:53.880Z,87.50
2019-05-12T09:29:25.277Z,82.70
2019-05-12T09:31:59.230Z,80.00
2019-05-12T09:34:29.346Z,81.80
2019-05-12T09:37:01.094Z,81.90
2019-05-12T09:39:36.427Z,82.00
2019-05-12T09:42:04.148Z,81.60
2019-05-12T09:44:35.097Z,81.30
2019-05-12T09:47:12.748Z,81.00
2019-05-12T09:49:39.538Z,79.40
2019-05-12T09:52:13.986Z,79.40
2019-05-12T09:54:44.407Z,78.00
2019-05-12T09:57:16.105Z,75.10
2019-05-12T09:59:55.548Z,75.30
2019-05-12T10:02:20.983Z,74.60
2019-05-12T10:04:56.492Z,73.60
2019-05-12T10:07:24.297Z,74.10
2019-05-12T10:09:58.944Z,72.30
2019-05-12T10:12:29.675Z,72.60
2019-05-12T10:14:59.552Z,74.30
2019-05-12T10:17:30.477Z,74.70
2019-05-12T10:20:01.249Z,73.90
2019-05-12T10:22:40.902Z,73.30
2019-05-12T10:25:14.211Z,70.80
2019-05-12T10:27:44.618Z,70.70
2019-05-12T10:30:17.736Z,69.00
2019-05-12T10:32:48.538Z,64.00
2019-05-12T10:35:21.591Z,65.50
2019-05-12T10:37:53.752Z,65.80
2019-05-12T10:40:24.326Z,65.60
2019-05-12T10:42:55.367Z,65.70
2019-05-12T10:45:28.522Z,65.20
2019-05-12T10:47:59.254Z,65.00
2019-05-12T10:50:30.183Z,66.00
2019-05-12T10:53:01.226Z,64.90
2019-05-12T10:55:33.555Z,58.70
2019-05-12T10:58:06.860Z,60.40
2019-05-12T11:00:36.353Z,61.30
2019-05-12T11:03:10.811Z,63.50
2019-05-12T11:05:39.253Z,60.60
2019-05-12T11:08:11.371Z,59.00
2019-05-12T11:10:42.165Z,58.30
2019-05-12T11:13:14.522Z,59.80
2019-05-12T11:15:49.453Z,58.20
2019-05-12T11:18:24.919Z,58.40
2019-05-12T11:20:54.372Z,58.30
2019-05-12T11:23:25.272Z,57.80
2019-05-12T11:25:56.285Z,57.70
2019-05-12T11:28:26.876Z,58.10
2019-05-12T11:30:57.688Z,57.20
2019-05-12T11:33:28.230Z,57.50
2019-05-12T11:35:59.038Z,56.90
2019-05-12T11:38:30.265Z,55.70
2019-05-12T11:41:01.169Z,56.60
2019-05-12T11:43:33.794Z,56.10
2019-05-12T11:46:04.564Z,56.70
2019-05-12T11:48:35.291Z,55.20
2019-05-12T11:51:06.324Z,54.20
2019-05-12T11:53:37.212Z,55.60
2019-05-12T11:56:09.354Z,53.90
2019-05-12T11:58:41.393Z,53.10
2019-05-12T12:01:14.138Z,51.60
2019-05-12T12:03:44.834Z,51.80
2019-05-12T12:06:15.684Z,50.80
2019-05-12T12:08:46.135Z,50.00
2019-05-12T12:11:24.252Z,49.90
2019-05-12T12:13:53.409Z,49.70
2019-05-12T12:16:24.732Z,49.70
2019-05-12T12:19:02.286Z,49.70
2019-05-12T12:21:27.687Z,48.90
2019-05-12T12:23:59.591Z,47.30
2019-05-12T12:26:32.631Z,46.00
2019-05-12T12:29:03.352Z,46.60
2019-05-12T12:31:53.253Z,46.40
2019-05-12T12:34:29.913Z,49.00
2019-05-12T12:36:56.824Z,53.90
2019-05-12T12:39:27.303Z,50.80
2019-05-12T12:42:00.523Z,49.00
2019-05-12T12:44:30.246Z,48.40
2019-05-12T12:47:01.892Z,47.40
2019-05-12T12:49:33.974Z,48.50
2019-05-12T12:52:05.211Z,48.50
2019-05-12T12:54:36.175Z,48.20
2019-05-12T12:57:09.989Z,49.30
2019-05-12T12:59:42.864Z,49.50
2019-05-12T13:02:14.280Z,50.80
2019-05-12T13:04:50.211Z,51.90
2019-05-12T13:07:17.950Z,52.70
2019-05-12T13:09:48.501Z,52.70
2019-05-12T13:12:19.809Z,51.20
2019-05-12T13:14:53.205Z,47.60
2019-05-12T13:17:28.977Z,43.60
2019-05-12T13:19:58.650Z,41.10
2019-05-12T13:22:29.719Z,40.60
2019-05-12T13:25:04.574Z,42.70
2019-05-12T13:27:36.753Z,42.40
2019-05-12T13:30:06.409Z,43.50
2019-05-12T13:32:38.022Z,46.10
2019-05-12T13:35:09.695Z,47.60
2019-05-12T13:37:43.126Z,49.00
2019-05-12T13:40:13.800Z,50.70
2019-05-12T13:42:44.659Z,51.20
2019-05-12T13:45:16.481Z,51.20
2019-05-12T13:47:47.465Z,51.90
2019-05-12T13:50:26.053Z,51.90
2019-05-12T13:52:51.117Z,51.80
2019-05-12T13:55:23.902Z,51.00
2019-05-12T13:57:57.595Z,50.80
2019-05-12T14:00:26.639Z,50.50
2019-05-12T14:03:04.544Z,51.80
2019-05-12T14:05:29.689Z,51.10
2019-05-12T14:08:00.611Z,51.60
2019-05-12T14:10:34.977Z,52.70
2019-05-12T14:13:03.957Z,53.00
2019-05-12T14:15:34.639Z,53.40
2019-05-12T14:18:10.257Z,54.40
2019-05-12T14:20:37.816Z,55.30
2019-05-12T14:23:08.748Z,55.40
2019-05-12T14:25:39.882Z,55.20
2019-05-12T14:28:13.669Z,55.40
2019-05-12T14:30:49.696Z,56.10
2019-05-12T14:33:18.273Z,55.50
2019-05-12T14:35:47.952Z,55.40
2019-05-12T14:38:19.308Z,55.10
2019-05-12T14:40:53.482Z,55.70
2019-05-12T14:43:24.244Z,57.70
2019-05-12T14:45:55.055Z,74.00
2019-05-12T14:48:25.668Z,80.60
2019-05-12T14:50:56.368Z,87.70
2019-05-12T14:53:26.952Z,92.80
2019-05-12T14:55:57.596Z,97.30
2019-05-12T14:58:28.470Z,99.30
2019-05-12T15:00:59.180Z,99.90
2019-05-12T15:03:29.851Z,99.90
2019-05-12T15:06:00.549Z,99.90
2019-05-12T15:08:36.384Z,99.90
2019-05-12T15:11:04.023Z,99.90
2019-05-12T15:13:36.047Z,99.90
2019-05-12T15:16:06.737Z,99.90
2019-05-12T15:18:39.618Z,99.90
2019-05-12T15:21:13.733Z,99.90
2019-05-12T15:23:44.172Z,99.90
2019-05-12T15:26:19.546Z,99.90
2019-05-12T15:28:47.049Z,99.90
2019-05-12T15:31:17.589Z,99.90
2019-05-12T15:33:49.623Z,99.90
2019-05-12T15:36:20.280Z,99.90
2019-05-12T15:38:55.547Z,99.90
2019-05-12T15:41:23.871Z,99.90
2019-05-12T15:43:55.804Z,99.90
2019-05-12T15:46:34.660Z,99.90
2019-05-12T15:49:00.523Z,99.90
2019-05-12T15:51:35.460Z,99.90
2019-05-12T15:54:06.554Z,99.90
2019-05-12T15:56:35.760Z,99.90
2019-05-12T15:59:06.525Z,99.90
2019-05-12T16:01:37.481Z,99.90
2019-05-12T16:04:11.594Z,99.90
2019-05-12T16:06:44.748Z,99.90
2019-05-12T16:09:13.566Z,99.90
2019-05-12T16:11:44.120Z,99.90
2019-05-12T16:14:15.035Z,99.90
2019-05-12T16:16:47.152Z,99.90
2019-05-12T16:19:17.937Z,99.90
2019-05-12T16:21:48.540Z,99.90
2019-05-12T16:24:19.203Z,99.90
2019-05-12T16:26:52.122Z,99.90
2019-05-12T16:29:23.224Z,99.90
2019-05-12T16:31:54.262Z,99.90
2019-05-12T16:34:25.134Z,99.90
2019-05-12T16:36:56.892Z,99.90
2019-05-12T16:39:30.499Z,99.90
2019-05-12T16:42:05.004Z,99.90
2019-05-12T16:44:34.688Z,99.90
2019-05-12T16:47:04.661Z,99.90
2019-05-12T16:49:37.339Z,99.90
2019-05-12T16:52:07.601Z,99.90
2019-05-12T16:54:39.823Z,99.90
2019-05-12T16:57:15.621Z,99.90
2019-05-12T16:59:43.103Z,99.90
2019-05-12T17:02:13.809Z,99.90
2019-05-12T17:04:45.079Z,99.90
2019-05-12T17:07:20.686Z,99.90
2019-05-12T17:09:48.776Z,99.90
2019-05-12T17:12:23.639Z,99.90
2019-05-12T17:14:53.293Z,99.90
2019-05-12T17:17:25.260Z,99.90
2019-05-12T17:19:56.127Z,99.90
2019-05-12T17:22:27.066Z,99.90
2019-05-12T17:24:57.546Z,99.90
2019-05-12T17:27:28.511Z,99.90
2019-05-12T17:29:59.321Z,99.90
2019-05-12T17:32:30.048Z,99.90
2019-05-12T17:35:01.053Z,99.90
2019-05-12T17:37:37.456Z,99.90
2019-05-12T17:40:09.386Z,99.90
2019-05-12T17:42:38.457Z,99.90
2019-05-12T17:45:14.744Z,99.90
2019-05-12T17:47:44.406Z,99.90
2019-05-12T17:50:18.260Z,99.90
2019-05-12T17:52:50.542Z,99.90
2019-05-12T17:55:21.381Z,99.90
2019-05-12T17:57:56.321Z,99.90
2019-05-12T18:00:24.700Z,99.90
2019-05-12T18:03:14.183Z,99.90
2019-05-12T18:05:27.859Z,99.90
2019-05-12T18:07:58.566Z,99.90
2019-05-12T18:10:32.651Z,99.90
2019-05-12T18:13:03.875Z,99.90
2019-05-12T18:15:37.932Z,99.90
2019-05-12T18:18:06.780Z,99.90
2019-05-12T18:20:41.754Z,99.90
2019-05-12T18:23:35.522Z,99.90
2019-05-12T18:26:11.467Z,99.90
2019-05-12T18:28:38.737Z,99.90
2019-05-12T18:31:10.170Z,99.90
2019-05-12T18:33:49.007Z,99.90
2019-05-12T18:36:14.379Z,99.90
2019-05-12T18:38:45.586Z,99.90
2019-05-12T18:41:16.328Z,99.90
2019-05-12T18:43:46.899Z,99.90
2019-05-12T18:46:17.757Z,99.90
2019-05-12T18:48:56.632Z,99.90
2019-05-12T18:51:23.833Z,99.90
2019-05-12T18:53:57.728Z,99.90
2019-05-12T18:56:27.688Z,99.90
2019-05-12T18:59:05.094Z,99.90
2019-05-12T19:01:33.472Z,99.90
2019-05-12T19:04:04.570Z,99.90
2019-05-12T19:06:36.596Z,99.90
2019-05-12T19:09:09.793Z,99.90
2019-05-12T19:11:42.093Z,99.90
2019-05-12T19:14:13.467Z,99.90
2019-05-12T19:16:44.413Z,99.90
2019-05-12T19:19:19.654Z,99.90
2019-05-12T19:21:47.092Z,99.90
2019-05-12T19:24:20.091Z,99.90
2019-05-12T19:26:51.013Z,99.90
2019-05-12T19:29:24.300Z,99.90
2019-05-12T19:31:57.840Z,99.90
2019-05-12T19:34:31.851Z,99.90
2019-05-12T19:36:59.277Z,99.90
2019-05-12T19:39:30.643Z,99.90
2019-05-12T19:42:03.599Z,99.90
2019-05-12T19:44:55.883Z,99.90
2019-05-12T19:47:33.571Z,99.90
2019-05-12T19:49:59.553Z,99.90
2019-05-12T19:52:30.550Z,99.90
2019-05-12T19:55:03.514Z,99.90
2019-05-12T19:57:33.856Z,99.90
2019-05-12T20:00:07.299Z,99.90
2019-05-12T20:02:39.546Z,99.90
2019-05-12T20:05:14.303Z,99.90
2019-05-12T20:07:44.721Z,99.90
2019-05-12T20:10:16.723Z,99.90
2019-05-12T20:12:48.853Z,99.90
2019-05-12T20:15:20.368Z,99.90
2019-05-12T20:17:53.385Z,99.90
2019-05-12T20:20:26.724Z,99.90
2019-05-12T20:22:56.394Z,99.90
2019-05-12T20:25:27.254Z,99.90
2019-05-12T20:28:05.628Z,99.90
2019-05-12T20:30:30.485Z,99.90
2019-05-12T20:33:04.131Z,99.90
2019-05-12T20:35:39.307Z,99.90
2019-05-12T20:38:07.704Z,99.90
2019-05-12T20:40:39.895Z,99.90
2019-05-12T20:43:12.285Z,99.90
2019-05-12T20:45:45.551Z,99.90
2019-05-12T20:48:19.636Z,99.90
2019-05-12T20:50:48.282Z,99.90
2019-05-12T20:53:24.800Z,99.90
2019-05-12T20:55:54.584Z,99.90
2019-05-12T20:58:26.599Z,99.90
2019-05-12T21:00:57.105Z,99.90
2019-05-12T21:03:33.438Z,99.90
2019-05-12T21:06:04.348Z,99.90
2019-05-12T21:08:36.386Z,99.90
2019-05-12T21:11:07.539Z,99.90
2019-05-12T21:13:38.779Z,99.90
2019-05-12T21:16:19.346Z,99.90
2019-05-12T21:18:47.829Z,99.90
2019-05-12T21:21:15.021Z,99.90
2019-05-12T21:23:54.056Z,99.90
2019-05-12T21:26:18.231Z,99.90
2019-05-12T21:28:49.545Z,99.90
2019-05-12T21:31:20.591Z,99.90
2019-05-12T21:33:53.502Z,99.90
2019-05-12T21:36:26.963Z,99.90
2019-05-12T21:38:59.405Z,99.90
2019-05-12T21:41:29.538Z,99.90
2019-05-12T21:44:05.559Z,99.90
2019-05-12T21:46:34.625Z,99.90
2019-05-12T21:49:10.362Z,99.90
2019-05-12T21:51:37.345Z,99.90
2019-05-12T21:54:08.185Z,99.90
2019-05-12T21:56:45.003Z,99.90
2019-05-12T21:59:14.923Z,99.90
2019-05-12T22:01:45.972Z,99.90
2019-05-12T22:04:16.973Z,99.90
2019-05-12T22:06:51.354Z,99.90
2019-05-12T22:09:19.549Z,99.90
2019-05-12T22:11:53.463Z,99.90
2019-05-12T22:14:24.071Z,99.90
2019-05-12T22:16:56.742Z,99.90
2019-05-12T22:19:30.981Z,99.90
2019-05-12T22:22:01.043Z,99.90
2019-05-12T22:24:34.598Z,99.90
2019-05-12T22:27:05.237Z,99.90
2019-05-12T22:29:36.220Z,99.90
2019-05-12T22:32:06.932Z,99.90
2019-05-12T22:34:42.024Z,99.90
2019-05-12T22:37:09.892Z,99.90
2019-05-12T22:39:40.364Z,99.90
2019-05-12T22:42:11.678Z,99.90
2019-05-12T22:44:43.761Z,99.90
2019-05-12T22:47:17.539Z,99.90
2019-05-12T22:49:52.254Z,99.90
2019-05-12T22:52:19.303Z,99.90
2019-05-12T22:54:51.119Z,99.90
2019-05-12T22:57:23.970Z,99.90
2019-05-12T22:59:55.052Z,99.90
2019-05-12T23:02:29.943Z,99.90
2019-05-12T23:04:57.754Z,99.90
2019-05-12T23:07:29.828Z,99.90
2019-05-12T23:10:07.073Z,99.90
2019-05-12T23:12:34.348Z,99.90
2019-05-12T23:15:16.908Z,99.90
2019-05-12T23:17:49.399Z,99.90
2019-05-12T23:20:25.289Z,99.90
2019-05-12T23:22:54.405Z,99.90
2019-05-12T23:25:25.501Z,99.90
2019-05-12T23:28:00.246Z,99.90
2019-05-12T23:30:28.658Z,99.90
2019-05-12T23:32:59.419Z,99.90
2019-05-12T23:35:34.939Z,99.90
2019-05-12T23:38:04.404Z,99.90
2019-05-12T23:40:35.357Z,99.90
2019-05-12T23:43:05.799Z,99.90
2019-05-12T23:45:36.380Z,99.90
2019-05-12T23:48:07.051Z,99.90
2019-05-12T23:50:37.867Z,99.90
2019-05-12T23:53:08.335Z,99.90
2019-05-12T23:55:38.758Z,99.90
2019-05-12T23:58:09.655Z,99.90
